NCAR-RAP Real-Time Weather Data

Output produced by METARs form (12 August 2020  18:52 UTC)
found at http://weather.rap.ucar.edu/surface/
 
KPDT 121753Z 16012KT 7SM -RA OVC080 17/03 A3000 RMK AO2 SLP148 P0000 60000 T01670033 10189 20161 53023
KPDT 121653Z 26012G21KT 5SM -RA OVC090 18/M02 A2997 RMK AO2 RAB43 SLP137 P0000 T01781022
KPDT 121553Z 26010KT 10SM OVC110 18/M04 A2995 RMK AO2 SLP129 T01831044
KPDT 121502Z 27012KT 10SM OVC100 18/M05 A2994 RMK AO2 T01831050
KPDT 121453Z 27014KT 2 1/2SM HZ OVC100 18/M05 A2993 RMK AO2 VIS 1V5 SLP122 T01831050 53015
KPDT 121353Z 20012KT 10SM SCT100 18/02 A2992 RMK AO2 SLP115 T01780022
KPDT 121253Z 20011KT 10SM CLR 17/04 A2990 RMK AO2 SLP109 T01720044
KPDT 121153Z AUTO 23009KT 10SM CLR 18/04 A2989 RMK AO2 SLP103 T01830044 10206 20178 51014 TSNO
KPDT 121053Z AUTO 24011KT 10SM CLR 18/06 A2988 RMK AO2 SLP099 T01830056 TSNO
KPDT 120953Z AUTO 24012KT 10SM CLR 19/06 A2987 RMK AO2 PK WND 25029/0859 SLP097 T01940056 TSNO
KPDT 120853Z AUTO 25020G29KT 10SM CLR 20/06 A2984 RMK AO2 PK WND 25030/0841 SLP087 T02000056 50007
KPDT 120753Z AUTO 24018G26KT 10SM CLR 21/05 A2985 RMK AO2 PK WND 24031/0742 SLP088 T02060050 403220189
KPDT 120653Z AUTO 26018G24KT 10SM CLR 20/05 A2984 RMK AO2 PK WND 24033/0558 SLP089 T02000050
KPDT 120553Z AUTO 23021G28KT 9SM CLR 21/01 A2982 RMK AO2 PK WND 24033/0539 SLP081 T02060011 10317 20206 50015
KPDT 120453Z AUTO 23017G22KT 10SM CLR 22/M02 A2983 RMK AO2 PK WND 23029/0405 SLP084 T02221022
KPDT 120353Z AUTO 23012G19KT 10SM CLR 24/M03 A2981 RMK AO2 SLP076 T02391033
KPDT 120253Z 25012G21KT 10SM CLR 26/M05 A2978 RMK AO2 SLP066 T02611050 53004
KPDT 120153Z 26012G22KT 10SM CLR 29/M06 A2975 RMK AO2 SLP058 T02891061
KPDT 120053Z 28016G25KT 10SM CLR 31/M04 A2975 RMK AO2 PK WND 27027/0000 SLP058 T03061039
KPDT 112353Z 28016G26KT 10SM CLR 31/M03 A2976 RMK AO2 PK WND 28026/2351 SLP061 T03111028 10322 20267 58011